sensor_id;sensor_type;location;lat;lon;timestamp;P1;durP1;ratioP1;P2;durP2;ratioP2
49890;SDS011;35780;55.568;37.492;2022-12-10T00:01:07;466.05;;;32.38;;
49890;SDS011;35780;55.568;37.492;2022-12-10T00:03:35;430.27;;;31.92;;
49890;SDS011;35780;55.568;37.492;2022-12-10T00:06:01;681.95;;;39.30;;
49890;SDS011;35780;55.568;37.492;2022-12-10T00:08:27;383.67;;;33.70;;
49890;SDS011;35780;55.568;37.492;2022-12-10T00:10:52;237.30;;;27.40;;
49890;SDS011;35780;55.568;37.492;2022-12-10T00:13:18;427.15;;;33.28;;
49890;SDS011;35780;55.568;37.492;2022-12-10T00:15:43;619.08;;;39.70;;
49890;SDS011;35780;55.568;37.492;2022-12-10T00:18:09;595.80;;;41.60;;
49890;SDS011;35780;55.568;37.492;2022-12-10T00:20:35;258.92;;;28.25;;
49890;SDS011;35780;55.568;37.492;2022-12-10T00:23:01;455.17;;;38.10;;
49890;SDS011;35780;55.568;37.492;2022-12-10T00:25:27;194.95;;;26.73;;
49890;SDS011;35780;55.568;37.492;2022-12-10T00:27:53;200.98;;;27.55;;
49890;SDS011;35780;55.568;37.492;2022-12-10T00:30:18;415.83;;;31.92;;
49890;SDS011;35780;55.568;37.492;2022-12-10T00:32:44;176.30;;;28.88;;
49890;SDS011;35780;55.568;37.492;2022-12-10T00:35:09;137.27;;;25.55;;
49890;SDS011;35780;55.568;37.492;2022-12-10T00:37:35;118.03;;;23.50;;
49890;SDS011;35780;55.568;37.492;2022-12-10T00:40:00;86.57;;;22.55;;
49890;SDS011;35780;55.568;37.492;2022-12-10T00:42:26;80.72;;;22.77;;
49890;SDS011;35780;55.568;37.492;2022-12-10T00:44:52;87.28;;;23.40;;
49890;SDS011;35780;55.568;37.492;2022-12-10T00:47:17;94.07;;;23.05;;
49890;SDS011;35780;55.568;37.492;2022-12-10T00:49:43;79.38;;;25.50;;
49890;SDS011;35780;55.568;37.492;2022-12-10T00:52:08;73.32;;;21.40;;
49890;SDS011;35780;55.568;37.492;2022-12-10T00:54:34;67.18;;;19.10;;
49890;SDS011;35780;55.568;37.492;2022-12-10T00:56:59;72.57;;;19.45;;
49890;SDS011;35780;55.568;37.492;2022-12-10T00:59:25;69.93;;;20.73;;
49890;SDS011;35780;55.568;37.492;2022-12-10T01:01:50;66.68;;;21.58;;
49890;SDS011;35780;55.568;37.492;2022-12-10T01:04:16;63.90;;;20.80;;
49890;SDS011;35780;55.568;37.492;2022-12-10T01:06:44;78.45;;;24.00;;
49890;SDS011;35780;55.568;37.492;2022-12-10T01:09:12;77.82;;;21.50;;
49890;SDS011;35780;55.568;37.492;2022-12-10T01:11:41;66.07;;;20.85;;
49890;SDS011;35780;55.568;37.492;2022-12-10T01:14:08;83.40;;;25.50;;
49890;SDS011;35780;55.568;37.492;2022-12-10T01:16:35;78.43;;;25.45;;
49890;SDS011;35780;55.568;37.492;2022-12-10T01:19:01;88.32;;;26.42;;
49890;SDS011;35780;55.568;37.492;2022-12-10T01:21:27;76.43;;;24.38;;
49890;SDS011;35780;55.568;37.492;2022-12-10T01:23:54;77.97;;;24.98;;
49890;SDS011;35780;55.568;37.492;2022-12-10T01:26:21;74.32;;;22.70;;
49890;SDS011;35780;55.568;37.492;2022-12-10T01:28:49;62.15;;;21.35;;
49890;SDS011;35780;55.568;37.492;2022-12-10T01:31:20;70.47;;;25.40;;
49890;SDS011;35780;55.568;37.492;2022-12-10T01:33:47;64.65;;;24.23;;
49890;SDS011;35780;55.568;37.492;2022-12-10T01:36:17;69.45;;;24.33;;
49890;SDS011;35780;55.568;37.492;2022-12-10T01:38:47;76.63;;;25.73;;
49890;SDS011;35780;55.568;37.492;2022-12-10T01:41:14;73.72;;;25.67;;
49890;SDS011;35780;55.568;37.492;2022-12-10T01:46:16;71.53;;;24.13;;
49890;SDS011;35780;55.568;37.492;2022-12-10T01:48:41;84.38;;;27.77;;
49890;SDS011;35780;55.568;37.492;2022-12-10T01:51:07;78.85;;;23.83;;
49890;SDS011;35780;55.568;37.492;2022-12-10T01:53:33;85.47;;;25.40;;
49890;SDS011;35780;55.568;37.492;2022-12-10T01:55:59;73.20;;;25.35;;
49890;SDS011;35780;55.568;37.492;2022-12-10T01:58:24;77.20;;;26.75;;
49890;SDS011;35780;55.568;37.492;2022-12-10T02:00:56;75.13;;;26.98;;
49890;SDS011;35780;55.568;37.492;2022-12-10T02:08:43;80.50;;;25.80;;
49890;SDS011;35780;55.568;37.492;2022-12-10T02:11:19;80.40;;;27.00;;
49890;SDS011;35780;55.568;37.492;2022-12-10T02:16:36;80.35;;;28.50;;
49890;SDS011;35780;55.568;37.492;2022-12-10T02:21:59;86.80;;;27.88;;
49890;SDS011;35780;55.568;37.492;2022-12-10T02:24:27;91.68;;;27.17;;
49890;SDS011;35780;55.568;37.492;2022-12-10T02:29:35;71.10;;;24.80;;
49890;SDS011;35780;55.568;37.492;2022-12-10T02:34:42;86.95;;;28.27;;
49890;SDS011;35780;55.568;37.492;2022-12-10T02:37:14;93.20;;;30.77;;
49890;SDS011;35780;55.568;37.492;2022-12-10T02:39:44;84.65;;;28.95;;
49890;SDS011;35780;55.568;37.492;2022-12-10T02:42:11;78.32;;;24.42;;
49890;SDS011;35780;55.568;37.492;2022-12-10T02:44:37;75.72;;;28.40;;
49890;SDS011;35780;55.568;37.492;2022-12-10T02:47:05;81.40;;;28.00;;
49890;SDS011;35780;55.568;37.492;2022-12-10T02:49:31;76.55;;;26.52;;
49890;SDS011;35780;55.568;37.492;2022-12-10T02:51:57;65.50;;;26.90;;
49890;SDS011;35780;55.568;37.492;2022-12-10T02:54:58;74.97;;;25.45;;
49890;SDS011;35780;55.568;37.492;2022-12-10T03:02:44;84.32;;;28.75;;
49890;SDS011;35780;55.568;37.492;2022-12-10T03:13:19;78.88;;;25.50;;
49890;SDS011;35780;55.568;37.492;2022-12-10T03:15:47;71.65;;;23.98;;
49890;SDS011;35780;55.568;37.492;2022-12-10T03:18:13;70.85;;;27.17;;
49890;SDS011;35780;55.568;37.492;2022-12-10T03:20:42;78.40;;;29.00;;
49890;SDS011;35780;55.568;37.492;2022-12-10T03:23:10;73.13;;;28.48;;
49890;SDS011;35780;55.568;37.492;2022-12-10T03:25:38;80.65;;;28.30;;
49890;SDS011;35780;55.568;37.492;2022-12-10T03:28:04;86.13;;;29.38;;
49890;SDS011;35780;55.568;37.492;2022-12-10T03:30:33;100.00;;;33.33;;
49890;SDS011;35780;55.568;37.492;2022-12-10T03:32:59;91.00;;;30.90;;
49890;SDS011;35780;55.568;37.492;2022-12-10T03:35:25;99.53;;;32.95;;
49890;SDS011;35780;55.568;37.492;2022-12-10T03:37:51;82.55;;;29.17;;
49890;SDS011;35780;55.568;37.492;2022-12-10T03:40:18;85.88;;;30.13;;
49890;SDS011;35780;55.568;37.492;2022-12-10T03:42:46;85.82;;;31.00;;
49890;SDS011;35780;55.568;37.492;2022-12-10T03:45:12;92.88;;;31.15;;
49890;SDS011;35780;55.568;37.492;2022-12-10T03:47:39;95.28;;;31.20;;
49890;SDS011;35780;55.568;37.492;2022-12-10T03:50:05;77.45;;;26.77;;
49890;SDS011;35780;55.568;37.492;2022-12-10T03:52:31;79.03;;;27.08;;
49890;SDS011;35780;55.568;37.492;2022-12-10T03:54:57;74.28;;;27.83;;
49890;SDS011;35780;55.568;37.492;2022-12-10T03:57:22;70.30;;;26.30;;
49890;SDS011;35780;55.568;37.492;2022-12-10T03:59:48;72.00;;;27.02;;
49890;SDS011;35780;55.568;37.492;2022-12-10T04:02:13;76.65;;;28.45;;
49890;SDS011;35780;55.568;37.492;2022-12-10T04:04:39;67.35;;;25.83;;
49890;SDS011;35780;55.568;37.492;2022-12-10T04:07:04;74.78;;;27.85;;
49890;SDS011;35780;55.568;37.492;2022-12-10T04:09:30;75.40;;;26.10;;
49890;SDS011;35780;55.568;37.492;2022-12-10T04:11:59;79.40;;;29.42;;
49890;SDS011;35780;55.568;37.492;2022-12-10T04:14:25;74.88;;;26.90;;
49890;SDS011;35780;55.568;37.492;2022-12-10T04:17:10;78.80;;;28.02;;
49890;SDS011;35780;55.568;37.492;2022-12-10T04:19:36;71.13;;;27.35;;
49890;SDS011;35780;55.568;37.492;2022-12-10T04:22:02;69.00;;;25.83;;
49890;SDS011;35780;55.568;37.492;2022-12-10T04:24:49;61.83;;;23.58;;
49890;SDS011;35780;55.568;37.492;2022-12-10T04:27:34;69.68;;;26.73;;
49890;SDS011;35780;55.568;37.492;2022-12-10T04:30:02;65.93;;;24.85;;
49890;SDS011;35780;55.568;37.492;2022-12-10T04:32:29;68.97;;;24.98;;
49890;SDS011;35780;55.568;37.492;2022-12-10T04:34:56;63.20;;;25.35;;
49890;SDS011;35780;55.568;37.492;2022-12-10T04:37:23;80.70;;;27.85;;
49890;SDS011;35780;55.568;37.492;2022-12-10T04:39:49;80.30;;;26.75;;
49890;SDS011;35780;55.568;37.492;2022-12-10T04:42:15;89.38;;;31.48;;
49890;SDS011;35780;55.568;37.492;2022-12-10T04:44:40;81.47;;;29.20;;
49890;SDS011;35780;55.568;37.492;2022-12-10T04:47:06;70.38;;;27.73;;
49890;SDS011;35780;55.568;37.492;2022-12-10T04:49:33;78.15;;;28.35;;
49890;SDS011;35780;55.568;37.492;2022-12-10T04:51:59;67.07;;;24.58;;
49890;SDS011;35780;55.568;37.492;2022-12-10T04:54:24;78.07;;;27.60;;
49890;SDS011;35780;55.568;37.492;2022-12-10T04:56:50;68.25;;;24.42;;
49890;SDS011;35780;55.568;37.492;2022-12-10T04:59:16;67.13;;;24.73;;
49890;SDS011;35780;55.568;37.492;2022-12-10T05:01:42;64.85;;;25.88;;
49890;SDS011;35780;55.568;37.492;2022-12-10T05:04:09;67.72;;;24.92;;
49890;SDS011;35780;55.568;37.492;2022-12-10T05:06:36;69.55;;;25.67;;
49890;SDS011;35780;55.568;37.492;2022-12-10T05:09:02;70.00;;;26.35;;
49890;SDS011;35780;55.568;37.492;2022-12-10T05:11:29;76.60;;;28.67;;
49890;SDS011;35780;55.568;37.492;2022-12-10T05:13:55;67.30;;;26.10;;
49890;SDS011;35780;55.568;37.492;2022-12-10T05:16:21;72.85;;;28.80;;
49890;SDS011;35780;55.568;37.492;2022-12-10T05:18:48;89.60;;;30.55;;
49890;SDS011;35780;55.568;37.492;2022-12-10T05:21:15;68.15;;;27.45;;
49890;SDS011;35780;55.568;37.492;2022-12-10T05:23:42;67.38;;;27.23;;
49890;SDS011;35780;55.568;37.492;2022-12-10T05:26:10;68.45;;;25.85;;
49890;SDS011;35780;55.568;37.492;2022-12-10T05:28:41;63.42;;;24.88;;
49890;SDS011;35780;55.568;37.492;2022-12-10T05:31:12;71.13;;;25.88;;
49890;SDS011;35780;55.568;37.492;2022-12-10T05:33:53;66.32;;;25.58;;
49890;SDS011;35780;55.568;37.492;2022-12-10T05:36:20;64.63;;;27.20;;
49890;SDS011;35780;55.568;37.492;2022-12-10T05:38:47;61.88;;;25.63;;
49890;SDS011;35780;55.568;37.492;2022-12-10T05:41:14;60.50;;;27.40;;
49890;SDS011;35780;55.568;37.492;2022-12-10T05:43:41;68.88;;;28.70;;
49890;SDS011;35780;55.568;37.492;2022-12-10T05:46:10;68.72;;;26.77;;
49890;SDS011;35780;55.568;37.492;2022-12-10T05:51:09;68.25;;;26.75;;
49890;SDS011;35780;55.568;37.492;2022-12-10T05:53:39;69.88;;;27.45;;
49890;SDS011;35780;55.568;37.492;2022-12-10T05:56:06;69.72;;;27.70;;
49890;SDS011;35780;55.568;37.492;2022-12-10T05:58:33;63.00;;;26.98;;
49890;SDS011;35780;55.568;37.492;2022-12-10T06:00:59;62.38;;;22.73;;
49890;SDS011;35780;55.568;37.492;2022-12-10T06:03:26;61.22;;;24.85;;
49890;SDS011;35780;55.568;37.492;2022-12-10T06:05:52;71.38;;;27.42;;
49890;SDS011;35780;55.568;37.492;2022-12-10T06:08:18;59.25;;;25.83;;
49890;SDS011;35780;55.568;37.492;2022-12-10T06:10:43;62.50;;;27.05;;
49890;SDS011;35780;55.568;37.492;2022-12-10T06:13:09;76.68;;;29.92;;
49890;SDS011;35780;55.568;37.492;2022-12-10T06:15:37;70.43;;;27.85;;
49890;SDS011;35780;55.568;37.492;2022-12-10T06:18:04;77.03;;;29.40;;
49890;SDS011;35780;55.568;37.492;2022-12-10T06:20:30;70.82;;;30.40;;
49890;SDS011;35780;55.568;37.492;2022-12-10T06:22:56;66.80;;;28.00;;
49890;SDS011;35780;55.568;37.492;2022-12-10T06:25:23;77.43;;;30.05;;
49890;SDS011;35780;55.568;37.492;2022-12-10T06:27:49;93.72;;;32.40;;
49890;SDS011;35780;55.568;37.492;2022-12-10T06:30:14;76.30;;;30.02;;
49890;SDS011;35780;55.568;37.492;2022-12-10T06:32:40;89.43;;;31.73;;
49890;SDS011;35780;55.568;37.492;2022-12-10T06:35:08;88.72;;;31.98;;
49890;SDS011;35780;55.568;37.492;2022-12-10T06:37:34;85.15;;;33.13;;
49890;SDS011;35780;55.568;37.492;2022-12-10T06:40:00;90.97;;;32.05;;
49890;SDS011;35780;55.568;37.492;2022-12-10T06:42:25;88.38;;;30.70;;
49890;SDS011;35780;55.568;37.492;2022-12-10T06:44:51;81.80;;;30.33;;
49890;SDS011;35780;55.568;37.492;2022-12-10T06:47:16;86.30;;;31.77;;
49890;SDS011;35780;55.568;37.492;2022-12-10T06:49:42;91.90;;;30.60;;
49890;SDS011;35780;55.568;37.492;2022-12-10T06:52:08;89.50;;;31.35;;
49890;SDS011;35780;55.568;37.492;2022-12-10T06:54:33;96.55;;;31.88;;
49890;SDS011;35780;55.568;37.492;2022-12-10T06:56:59;93.63;;;33.75;;
49890;SDS011;35780;55.568;37.492;2022-12-10T06:59:24;99.88;;;34.05;;
49890;SDS011;35780;55.568;37.492;2022-12-10T07:01:50;99.05;;;32.15;;
49890;SDS011;35780;55.568;37.492;2022-12-10T07:04:15;89.35;;;33.47;;
49890;SDS011;35780;55.568;37.492;2022-12-10T07:06:41;125.50;;;34.92;;
49890;SDS011;35780;55.568;37.492;2022-12-10T07:09:07;106.90;;;36.20;;
49890;SDS011;35780;55.568;37.492;2022-12-10T07:11:32;99.03;;;34.72;;
49890;SDS011;35780;55.568;37.492;2022-12-10T07:13:58;103.68;;;34.40;;
49890;SDS011;35780;55.568;37.492;2022-12-10T07:16:25;107.22;;;37.47;;
49890;SDS011;35780;55.568;37.492;2022-12-10T07:18:53;89.90;;;31.92;;
49890;SDS011;35780;55.568;37.492;2022-12-10T07:21:24;107.63;;;34.80;;
49890;SDS011;35780;55.568;37.492;2022-12-10T07:23:52;101.78;;;34.13;;
49890;SDS011;35780;55.568;37.492;2022-12-10T07:26:20;93.63;;;33.72;;
49890;SDS011;35780;55.568;37.492;2022-12-10T07:28:46;107.78;;;36.25;;
49890;SDS011;35780;55.568;37.492;2022-12-10T07:31:12;86.10;;;30.77;;
49890;SDS011;35780;55.568;37.492;2022-12-10T07:33:37;95.43;;;33.72;;
49890;SDS011;35780;55.568;37.492;2022-12-10T07:36:07;105.45;;;34.22;;
49890;SDS011;35780;55.568;37.492;2022-12-10T07:38:34;97.05;;;34.67;;
49890;SDS011;35780;55.568;37.492;2022-12-10T07:41:06;102.57;;;33.45;;
49890;SDS011;35780;55.568;37.492;2022-12-10T07:43:34;104.18;;;34.78;;
49890;SDS011;35780;55.568;37.492;2022-12-10T07:46:07;102.40;;;33.33;;
49890;SDS011;35780;55.568;37.492;2022-12-10T07:48:47;105.57;;;36.28;;
49890;SDS011;35780;55.568;37.492;2022-12-10T07:51:13;92.90;;;33.42;;
49890;SDS011;35780;55.568;37.492;2022-12-10T07:53:39;97.38;;;36.90;;
49890;SDS011;35780;55.568;37.492;2022-12-10T07:56:04;106.25;;;36.40;;
49890;SDS011;35780;55.568;37.492;2022-12-10T07:58:30;95.38;;;33.55;;
49890;SDS011;35780;55.568;37.492;2022-12-10T08:00:56;104.15;;;35.20;;
49890;SDS011;35780;55.568;37.492;2022-12-10T08:03:21;96.80;;;34.33;;
49890;SDS011;35780;55.568;37.492;2022-12-10T08:05:47;109.07;;;34.28;;
49890;SDS011;35780;55.568;37.492;2022-12-10T08:08:12;86.22;;;31.45;;
49890;SDS011;35780;55.568;37.492;2022-12-10T08:10:38;94.78;;;35.05;;
49890;SDS011;35780;55.568;37.492;2022-12-10T08:13:04;113.55;;;36.35;;
49890;SDS011;35780;55.568;37.492;2022-12-10T08:15:30;98.30;;;36.30;;
49890;SDS011;35780;55.568;37.492;2022-12-10T08:17:56;109.28;;;35.58;;
49890;SDS011;35780;55.568;37.492;2022-12-10T08:20:22;107.47;;;37.65;;
49890;SDS011;35780;55.568;37.492;2022-12-10T08:22:49;106.45;;;36.05;;
49890;SDS011;35780;55.568;37.492;2022-12-10T08:25:15;100.43;;;34.58;;
49890;SDS011;35780;55.568;37.492;2022-12-10T08:27:41;116.22;;;37.28;;
49890;SDS011;35780;55.568;37.492;2022-12-10T08:30:06;108.20;;;36.45;;
49890;SDS011;35780;55.568;37.492;2022-12-10T08:32:33;87.50;;;31.85;;
49890;SDS011;35780;55.568;37.492;2022-12-10T08:34:58;94.68;;;34.45;;
49890;SDS011;35780;55.568;37.492;2022-12-10T08:37:24;97.57;;;36.35;;
49890;SDS011;35780;55.568;37.492;2022-12-10T08:39:49;95.30;;;33.00;;
49890;SDS011;35780;55.568;37.492;2022-12-10T08:42:15;111.30;;;37.55;;
49890;SDS011;35780;55.568;37.492;2022-12-10T08:44:40;110.00;;;38.63;;
49890;SDS011;35780;55.568;37.492;2022-12-10T08:47:06;105.38;;;35.33;;
49890;SDS011;35780;55.568;37.492;2022-12-10T08:49:32;122.22;;;37.38;;
49890;SDS011;35780;55.568;37.492;2022-12-10T08:51:57;110.40;;;36.85;;
49890;SDS011;35780;55.568;37.492;2022-12-10T08:54:23;114.35;;;38.13;;
49890;SDS011;35780;55.568;37.492;2022-12-10T08:56:48;121.50;;;40.28;;
49890;SDS011;35780;55.568;37.492;2022-12-10T08:59:14;156.35;;;43.22;;
49890;SDS011;35780;55.568;37.492;2022-12-10T09:01:40;116.38;;;37.33;;
49890;SDS011;35780;55.568;37.492;2022-12-10T09:04:05;138.52;;;42.08;;
49890;SDS011;35780;55.568;37.492;2022-12-10T09:06:31;125.45;;;43.42;;
49890;SDS011;35780;55.568;37.492;2022-12-10T09:08:56;135.88;;;41.80;;
49890;SDS011;35780;55.568;37.492;2022-12-10T09:11:24;129.50;;;41.80;;
49890;SDS011;35780;55.568;37.492;2022-12-10T09:13:51;136.05;;;41.85;;
49890;SDS011;35780;55.568;37.492;2022-12-10T09:16:17;138.43;;;38.08;;
49890;SDS011;35780;55.568;37.492;2022-12-10T09:18:43;134.48;;;39.97;;
49890;SDS011;35780;55.568;37.492;2022-12-10T09:21:10;123.55;;;40.38;;
49890;SDS011;35780;55.568;37.492;2022-12-10T09:23:37;150.50;;;40.60;;
49890;SDS011;35780;55.568;37.492;2022-12-10T09:26:10;177.52;;;43.08;;
49890;SDS011;35780;55.568;37.492;2022-12-10T09:28:42;166.27;;;45.83;;
49890;SDS011;35780;55.568;37.492;2022-12-10T09:31:08;115.30;;;33.75;;
49890;SDS011;35780;55.568;37.492;2022-12-10T09:33:35;159.95;;;41.70;;
49890;SDS011;35780;55.568;37.492;2022-12-10T09:36:07;141.38;;;40.42;;
49890;SDS011;35780;55.568;37.492;2022-12-10T09:38:35;174.20;;;47.97;;
49890;SDS011;35780;55.568;37.492;2022-12-10T09:41:02;163.50;;;43.30;;
49890;SDS011;35780;55.568;37.492;2022-12-10T09:46:24;190.85;;;41.72;;
49890;SDS011;35780;55.568;37.492;2022-12-10T09:51:47;258.90;;;45.60;;
49890;SDS011;35780;55.568;37.492;2022-12-10T09:56:58;202.65;;;45.78;;
49890;SDS011;35780;55.568;37.492;2022-12-10T09:59:27;227.82;;;46.90;;
49890;SDS011;35780;55.568;37.492;2022-12-10T10:02:02;223.20;;;46.53;;
49890;SDS011;35780;55.568;37.492;2022-12-10T10:04:50;154.60;;;37.30;;
49890;SDS011;35780;55.568;37.492;2022-12-10T10:07:24;210.23;;;42.63;;
49890;SDS011;35780;55.568;37.492;2022-12-10T10:09:55;150.18;;;36.78;;
49890;SDS011;35780;55.568;37.492;2022-12-10T10:12:23;281.60;;;46.22;;
49890;SDS011;35780;55.568;37.492;2022-12-10T10:14:57;174.75;;;41.85;;
49890;SDS011;35780;55.568;37.492;2022-12-10T10:17:25;178.60;;;39.08;;
49890;SDS011;35780;55.568;37.492;2022-12-10T10:19:54;212.73;;;40.30;;
49890;SDS011;35780;55.568;37.492;2022-12-10T10:22:19;149.70;;;40.03;;
49890;SDS011;35780;55.568;37.492;2022-12-10T10:24:45;227.55;;;48.45;;
49890;SDS011;35780;55.568;37.492;2022-12-10T10:27:15;230.30;;;46.25;;
49890;SDS011;35780;55.568;37.492;2022-12-10T10:29:44;188.38;;;44.58;;
49890;SDS011;35780;55.568;37.492;2022-12-10T10:34:43;141.03;;;36.83;;
49890;SDS011;35780;55.568;37.492;2022-12-10T10:37:23;237.05;;;43.45;;
49890;SDS011;35780;55.568;37.492;2022-12-10T10:39:53;369.73;;;49.10;;
49890;SDS011;35780;55.568;37.492;2022-12-10T10:42:25;210.75;;;45.08;;
49890;SDS011;35780;55.568;37.492;2022-12-10T10:44:53;190.40;;;38.05;;
49890;SDS011;35780;55.568;37.492;2022-12-10T10:47:29;170.38;;;40.10;;
49890;SDS011;35780;55.568;37.492;2022-12-10T10:49:57;218.68;;;44.63;;
49890;SDS011;35780;55.568;37.492;2022-12-10T10:52:25;246.93;;;46.70;;
49890;SDS011;35780;55.568;37.492;2022-12-10T10:54:53;223.02;;;45.35;;
49890;SDS011;35780;55.568;37.492;2022-12-10T10:57:34;190.20;;;39.65;;
49890;SDS011;35780;55.568;37.492;2022-12-10T11:02:33;225.02;;;40.78;;
49890;SDS011;35780;55.568;37.492;2022-12-10T11:05:20;238.07;;;43.95;;
49890;SDS011;35780;55.568;37.492;2022-12-10T11:07:59;289.48;;;50.58;;
49890;SDS011;35780;55.568;37.492;2022-12-10T11:10:26;152.82;;;35.65;;
49890;SDS011;35780;55.568;37.492;2022-12-10T11:12:56;198.23;;;41.80;;
49890;SDS011;35780;55.568;37.492;2022-12-10T11:18:02;116.75;;;31.85;;
49890;SDS011;35780;55.568;37.492;2022-12-10T11:20:34;157.90;;;39.42;;
49890;SDS011;35780;55.568;37.492;2022-12-10T11:23:02;136.40;;;34.55;;
49890;SDS011;35780;55.568;37.492;2022-12-10T11:45:29;87.38;;;32.45;;
49890;SDS011;35780;55.568;37.492;2022-12-10T11:51:09;86.90;;;30.52;;
49890;SDS011;35780;55.568;37.492;2022-12-10T11:56:46;67.05;;;24.25;;
49890;SDS011;35780;55.568;37.492;2022-12-10T12:12:55;72.32;;;29.80;;
49890;SDS011;35780;55.568;37.492;2022-12-10T12:15:33;74.72;;;29.35;;
49890;SDS011;35780;55.568;37.492;2022-12-10T12:18:12;76.40;;;31.70;;
49890;SDS011;35780;55.568;37.492;2022-12-10T12:20:43;61.72;;;24.83;;
49890;SDS011;35780;55.568;37.492;2022-12-10T12:23:28;77.60;;;32.95;;
49890;SDS011;35780;55.568;37.492;2022-12-10T12:26:02;83.65;;;32.65;;
49890;SDS011;35780;55.568;37.492;2022-12-10T12:28:36;73.20;;;28.88;;
49890;SDS011;35780;55.568;37.492;2022-12-10T12:31:06;74.57;;;30.23;;
49890;SDS011;35780;55.568;37.492;2022-12-10T12:33:55;89.30;;;36.17;;
49890;SDS011;35780;55.568;37.492;2022-12-10T12:36:29;84.03;;;34.28;;
49890;SDS011;35780;55.568;37.492;2022-12-10T12:44:26;81.75;;;32.78;;
49890;SDS011;35780;55.568;37.492;2022-12-10T12:50:20;81.38;;;33.65;;
49890;SDS011;35780;55.568;37.492;2022-12-10T12:52:58;80.95;;;34.30;;
49890;SDS011;35780;55.568;37.492;2022-12-10T12:55:29;72.38;;;30.60;;
49890;SDS011;35780;55.568;37.492;2022-12-10T12:58:13;76.55;;;31.40;;
49890;SDS011;35780;55.568;37.492;2022-12-10T13:00:48;75.93;;;30.20;;
49890;SDS011;35780;55.568;37.492;2022-12-10T13:08:59;76.03;;;33.30;;
49890;SDS011;35780;55.568;37.492;2022-12-10T13:11:36;83.25;;;32.47;;
49890;SDS011;35780;55.568;37.492;2022-12-10T13:19:16;85.93;;;35.72;;
49890;SDS011;35780;55.568;37.492;2022-12-10T13:24:19;77.85;;;32.42;;
49890;SDS011;35780;55.568;37.492;2022-12-10T13:27:10;87.93;;;34.35;;
49890;SDS011;35780;55.568;37.492;2022-12-10T13:46:21;73.43;;;31.33;;
49890;SDS011;35780;55.568;37.492;2022-12-10T13:48:46;82.95;;;32.15;;
49890;SDS011;35780;55.568;37.492;2022-12-10T13:51:26;62.95;;;27.30;;
49890;SDS011;35780;55.568;37.492;2022-12-10T13:56:50;79.45;;;29.88;;
49890;SDS011;35780;55.568;37.492;2022-12-10T13:59:47;69.65;;;29.33;;
49890;SDS011;35780;55.568;37.492;2022-12-10T14:05:00;73.75;;;29.98;;
49890;SDS011;35780;55.568;37.492;2022-12-10T14:07:32;70.15;;;30.08;;
49890;SDS011;35780;55.568;37.492;2022-12-10T14:09:58;70.93;;;29.40;;
49890;SDS011;35780;55.568;37.492;2022-12-10T14:12:26;59.38;;;26.92;;
49890;SDS011;35780;55.568;37.492;2022-12-10T14:14:58;62.77;;;26.60;;
49890;SDS011;35780;55.568;37.492;2022-12-10T14:17:33;56.25;;;25.85;;
49890;SDS011;35780;55.568;37.492;2022-12-10T14:20:00;63.28;;;27.45;;
49890;SDS011;35780;55.568;37.492;2022-12-10T14:22:38;70.28;;;30.65;;
49890;SDS011;35780;55.568;37.492;2022-12-10T14:25:11;44.40;;;19.10;;
49890;SDS011;35780;55.568;37.492;2022-12-10T14:27:39;63.75;;;28.00;;
49890;SDS011;35780;55.568;37.492;2022-12-10T14:30:06;61.22;;;27.38;;
49890;SDS011;35780;55.568;37.492;2022-12-10T14:32:53;52.45;;;25.60;;
49890;SDS011;35780;55.568;37.492;2022-12-10T14:35:21;60.67;;;27.67;;
49890;SDS011;35780;55.568;37.492;2022-12-10T14:37:48;70.75;;;27.90;;
49890;SDS011;35780;55.568;37.492;2022-12-10T14:40:32;63.45;;;26.58;;
49890;SDS011;35780;55.568;37.492;2022-12-10T14:43:07;64.07;;;27.70;;
49890;SDS011;35780;55.568;37.492;2022-12-10T14:48:35;56.60;;;26.70;;
49890;SDS011;35780;55.568;37.492;2022-12-10T14:51:10;56.67;;;24.42;;
49890;SDS011;35780;55.568;37.492;2022-12-10T14:53:39;51.70;;;25.40;;
49890;SDS011;35780;55.568;37.492;2022-12-10T14:56:05;58.20;;;28.65;;
49890;SDS011;35780;55.568;37.492;2022-12-10T15:01:38;51.05;;;25.15;;
49890;SDS011;35780;55.568;37.492;2022-12-10T15:04:06;53.22;;;25.40;;
49890;SDS011;35780;55.568;37.492;2022-12-10T15:06:38;53.70;;;23.48;;
49890;SDS011;35780;55.568;37.492;2022-12-10T15:09:04;53.90;;;23.75;;
49890;SDS011;35780;55.568;37.492;2022-12-10T15:11:31;47.88;;;21.90;;
49890;SDS011;35780;55.568;37.492;2022-12-10T15:14:00;49.00;;;25.33;;
49890;SDS011;35780;55.568;37.492;2022-12-10T15:16:28;41.55;;;20.40;;
49890;SDS011;35780;55.568;37.492;2022-12-10T15:18:54;48.88;;;23.08;;
49890;SDS011;35780;55.568;37.492;2022-12-10T15:21:24;40.08;;;20.20;;
49890;SDS011;35780;55.568;37.492;2022-12-10T15:23:52;45.15;;;20.17;;
49890;SDS011;35780;55.568;37.492;2022-12-10T15:31:55;40.65;;;21.58;;
49890;SDS011;35780;55.568;37.492;2022-12-10T15:34:28;40.35;;;19.83;;
49890;SDS011;35780;55.568;37.492;2022-12-10T15:36:55;40.80;;;21.35;;
49890;SDS011;35780;55.568;37.492;2022-12-10T15:39:30;33.05;;;17.38;;
49890;SDS011;35780;55.568;37.492;2022-12-10T15:42:06;39.22;;;21.10;;
49890;SDS011;35780;55.568;37.492;2022-12-10T15:49:47;40.50;;;22.00;;
49890;SDS011;35780;55.568;37.492;2022-12-10T15:52:15;28.48;;;15.77;;
49890;SDS011;35780;55.568;37.492;2022-12-10T15:54:43;37.10;;;19.42;;
49890;SDS011;35780;55.568;37.492;2022-12-10T15:57:17;34.75;;;20.50;;
49890;SDS011;35780;55.568;37.492;2022-12-10T15:59:59;24.30;;;12.38;;
49890;SDS011;35780;55.568;37.492;2022-12-10T16:02:50;34.45;;;17.50;;
49890;SDS011;35780;55.568;37.492;2022-12-10T16:05:22;38.92;;;20.45;;
49890;SDS011;35780;55.568;37.492;2022-12-10T16:07:51;36.30;;;21.02;;
49890;SDS011;35780;55.568;37.492;2022-12-10T16:13:34;31.73;;;18.77;;
49890;SDS011;35780;55.568;37.492;2022-12-10T16:16:16;29.73;;;17.20;;
49890;SDS011;35780;55.568;37.492;2022-12-10T16:18:43;34.38;;;20.73;;
49890;SDS011;35780;55.568;37.492;2022-12-10T16:21:19;34.03;;;20.75;;
49890;SDS011;35780;55.568;37.492;2022-12-10T16:23:45;33.80;;;17.98;;
49890;SDS011;35780;55.568;37.492;2022-12-10T16:26:19;33.53;;;18.65;;
49890;SDS011;35780;55.568;37.492;2022-12-10T16:28:46;36.33;;;20.20;;
49890;SDS011;35780;55.568;37.492;2022-12-10T16:31:33;33.47;;;19.92;;
49890;SDS011;35780;55.568;37.492;2022-12-10T16:33:59;34.13;;;20.40;;
49890;SDS011;35780;55.568;37.492;2022-12-10T16:36:25;30.48;;;18.85;;
49890;SDS011;35780;55.568;37.492;2022-12-10T16:38:54;35.38;;;17.73;;
49890;SDS011;35780;55.568;37.492;2022-12-10T16:41:28;31.23;;;18.70;;
49890;SDS011;35780;55.568;37.492;2022-12-10T16:44:10;29.83;;;19.75;;
49890;SDS011;35780;55.568;37.492;2022-12-10T16:49:50;30.00;;;17.10;;
49890;SDS011;35780;55.568;37.492;2022-12-10T16:52:48;27.23;;;15.25;;
49890;SDS011;35780;55.568;37.492;2022-12-10T16:55:17;20.90;;;13.50;;